createdAt,value
2022-11-24T00:02:18.672Z,9.19
2022-11-24T00:04:46.978Z,9.19
2022-11-24T00:07:14.699Z,9.18
2022-11-24T00:09:41.886Z,9.18
2022-11-24T00:12:08.906Z,9.18
2022-11-24T00:14:36.514Z,9.19
2022-11-24T00:17:03.444Z,9.20
2022-11-24T00:19:35.100Z,9.20
2022-11-24T00:22:03.258Z,9.20
2022-11-24T00:24:30.290Z,9.20
2022-11-24T00:26:57.158Z,9.21
2022-11-24T00:29:25.459Z,9.20
2022-11-24T00:31:52.247Z,9.19
2022-11-24T00:34:19.111Z,9.19
2022-11-24T00:36:45.905Z,9.18
2022-11-24T00:39:15.731Z,9.21
2022-11-24T00:41:43.006Z,9.21
2022-11-24T00:44:09.902Z,9.19
2022-11-24T00:46:37.014Z,9.21
2022-11-24T00:49:04.432Z,9.21
2022-11-24T00:51:31.601Z,9.21
2022-11-24T00:53:58.498Z,9.22
2022-11-24T00:56:27.918Z,9.24
2022-11-24T00:58:55.426Z,9.25
2022-11-24T01:01:31.141Z,9.26
2022-11-24T01:04:01.364Z,9.26
2022-11-24T01:06:29.492Z,9.26
2022-11-24T01:08:57.615Z,9.26
2022-11-24T01:11:28.331Z,9.26
2022-11-24T01:13:57.868Z,9.27
2022-11-24T01:16:26.690Z,9.27
2022-11-24T01:18:54.249Z,9.28
2022-11-24T01:21:21.652Z,9.27
2022-11-24T01:23:48.852Z,9.27
2022-11-24T01:26:17.671Z,9.26
2022-11-24T01:28:47.520Z,9.27
2022-11-24T01:31:15.791Z,9.28
2022-11-24T01:33:42.948Z,9.27
2022-11-24T01:36:11.512Z,9.25
2022-11-24T01:38:38.342Z,9.24
2022-11-24T01:41:07.947Z,9.24
2022-11-24T01:43:35.118Z,9.23
2022-11-24T01:46:12.971Z,9.23
2022-11-24T01:48:43.860Z,9.24
2022-11-24T01:51:16.200Z,9.24
2022-11-24T01:53:46.217Z,9.23
2022-11-24T01:56:14.030Z,9.22
2022-11-24T01:58:45.679Z,9.22
2022-11-24T02:01:16.552Z,9.21
2022-11-24T02:03:48.427Z,9.21
2022-11-24T02:06:20.302Z,9.21
2022-11-24T02:08:52.174Z,9.21
2022-11-24T02:11:19.113Z,9.19
2022-11-24T02:13:47.951Z,9.19
2022-11-24T02:16:16.173Z,9.18
2022-11-24T02:18:45.298Z,9.18
2022-11-24T02:21:17.104Z,9.17
2022-11-24T02:23:49.654Z,9.15
2022-11-24T02:26:38.360Z,9.15
2022-11-24T02:29:07.640Z,9.15
2022-11-24T02:31:35.687Z,9.14
2022-11-24T02:34:02.853Z,9.14
2022-11-24T02:36:29.800Z,9.15
2022-11-24T02:38:56.857Z,9.15
2022-11-24T02:41:26.992Z,9.17
2022-11-24T02:43:59.368Z,9.18
2022-11-24T02:46:26.320Z,9.19
2022-11-24T02:48:54.383Z,9.19
2022-11-24T02:51:21.204Z,9.20
2022-11-24T02:53:47.889Z,9.21
2022-11-24T02:56:16.014Z,9.20
2022-11-24T02:58:42.858Z,9.20
2022-11-24T03:01:11.012Z,9.19
2022-11-24T03:03:38.072Z,9.17
2022-11-24T03:06:05.082Z,9.16
2022-11-24T03:08:31.877Z,9.16
2022-11-24T03:10:58.613Z,9.17
2022-11-24T03:13:27.086Z,9.16
2022-11-24T03:15:53.881Z,9.15
2022-11-24T03:18:23.393Z,9.13
2022-11-24T03:20:50.378Z,9.13
2022-11-24T03:23:17.153Z,9.10
2022-11-24T03:25:43.918Z,9.12
2022-11-24T03:28:10.645Z,9.11
2022-11-24T03:30:37.396Z,9.10
2022-11-24T03:33:06.549Z,9.10
2022-11-24T03:35:34.670Z,9.10
2022-11-24T03:38:02.146Z,9.10
2022-11-24T03:40:28.867Z,9.10
2022-11-24T03:42:58.088Z,9.10
2022-11-24T03:48:11.601Z,9.10
2022-11-24T03:50:40.825Z,9.11
2022-11-24T03:53:08.035Z,9.11
2022-11-24T03:55:35.202Z,9.12
2022-11-24T03:58:02.036Z,9.12
2022-11-24T04:00:28.945Z,9.11
2022-11-24T04:02:55.805Z,9.11
2022-11-24T04:05:23.222Z,9.10
2022-11-24T04:07:51.420Z,9.09
2022-11-24T04:10:18.174Z,9.10
2022-11-24T04:12:44.961Z,9.10
2022-11-24T04:15:15.096Z,9.10
2022-11-24T04:17:41.966Z,9.11
2022-11-24T04:20:10.344Z,9.11
2022-11-24T04:22:37.568Z,9.11
2022-11-24T04:25:07.574Z,9.13
2022-11-24T04:27:35.420Z,9.13
2022-11-24T04:30:02.485Z,9.13
2022-11-24T04:32:29.123Z,9.13
2022-11-24T04:34:55.837Z,9.12
2022-11-24T04:37:22.835Z,9.11
2022-11-24T04:39:49.640Z,9.10
2022-11-24T04:42:17.645Z,9.10
2022-11-24T04:44:44.526Z,9.10
2022-11-24T04:47:15.210Z,9.10
2022-11-24T04:49:42.333Z,9.10
2022-11-24T04:52:09.023Z,9.08
2022-11-24T04:54:35.996Z,9.09
2022-11-24T04:57:02.864Z,9.09
2022-11-24T04:59:31.035Z,9.08
2022-11-24T05:01:57.849Z,9.08
2022-11-24T05:04:26.239Z,9.08
2022-11-24T05:06:53.664Z,9.08
2022-11-24T05:09:20.435Z,9.08
2022-11-24T05:11:47.123Z,9.07
2022-11-24T05:14:13.793Z,9.08
2022-11-24T05:16:41.839Z,9.10
2022-11-24T05:19:08.574Z,9.11
2022-11-24T05:21:35.370Z,9.13
2022-11-24T05:24:02.026Z,9.13
2022-11-24T05:26:28.970Z,9.14
2022-11-24T05:28:55.697Z,9.16
2022-11-24T05:31:22.499Z,9.15
2022-11-24T05:33:51.175Z,9.17
2022-11-24T05:39:18.418Z,9.18
2022-11-24T05:41:45.670Z,9.18
2022-11-24T05:44:12.444Z,9.19
2022-11-24T05:46:39.420Z,9.19
2022-11-24T05:49:07.541Z,9.20
2022-11-24T05:51:34.550Z,9.22
2022-11-24T05:54:01.466Z,9.23
2022-11-24T05:56:28.401Z,9.23
2022-11-24T05:58:55.658Z,9.24
2022-11-24T06:01:22.466Z,9.23
2022-11-24T06:03:49.274Z,9.25
2022-11-24T06:06:19.800Z,9.24
2022-11-24T06:08:46.495Z,9.24
2022-11-24T06:11:19.058Z,9.25
2022-11-24T06:13:48.474Z,9.23
2022-11-24T06:16:15.457Z,9.25
2022-11-24T06:18:42.595Z,9.25
2022-11-24T06:21:11.339Z,9.25
2022-11-24T06:23:39.982Z,9.25
2022-11-24T06:26:06.985Z,9.23
2022-11-24T06:28:33.671Z,9.24
2022-11-24T06:31:01.751Z,9.25
2022-11-24T06:33:32.227Z,9.24
2022-11-24T06:36:04.556Z,9.25
2022-11-24T06:38:31.568Z,9.25
2022-11-24T06:41:04.459Z,9.25
2022-11-24T06:43:31.261Z,9.24
2022-11-24T06:45:58.906Z,9.23
2022-11-24T06:48:26.615Z,9.23
2022-11-24T06:50:53.529Z,9.22
2022-11-24T06:53:20.366Z,9.21
2022-11-24T06:55:47.333Z,9.19
2022-11-24T06:58:15.384Z,9.20
2022-11-24T07:00:42.287Z,9.18
2022-11-24T07:03:15.478Z,9.17
2022-11-24T07:05:42.998Z,9.16
2022-11-24T07:08:13.243Z,9.15
2022-11-24T07:10:44.254Z,9.15
2022-11-24T07:13:10.956Z,9.13
2022-11-24T07:15:38.971Z,9.12
2022-11-24T07:18:05.744Z,9.12
2022-11-24T07:20:32.665Z,9.14
2022-11-24T07:22:59.652Z,9.15
2022-11-24T07:25:26.682Z,9.17
2022-11-24T07:27:56.727Z,9.18
2022-11-24T07:30:23.397Z,9.19
2022-11-24T07:32:52.934Z,9.21
2022-11-24T07:35:19.529Z,9.21
2022-11-24T07:37:46.329Z,9.22
2022-11-24T07:40:13.213Z,9.24
2022-11-24T07:42:39.782Z,9.23
2022-11-24T07:45:07.735Z,9.25
2022-11-24T07:47:39.296Z,9.24
2022-11-24T07:50:10.944Z,9.26
2022-11-24T07:52:38.532Z,9.26
2022-11-24T07:55:06.311Z,9.27
2022-11-24T07:57:33.187Z,9.26
2022-11-24T07:59:59.795Z,9.26
2022-11-24T08:02:26.543Z,9.26
2022-11-24T08:04:53.189Z,9.26
2022-11-24T08:07:21.405Z,9.27
2022-11-24T08:09:50.299Z,9.28
2022-11-24T08:12:21.509Z,9.29
2022-11-24T08:14:49.371Z,9.29
2022-11-24T08:17:16.613Z,9.30
2022-11-24T08:19:43.533Z,9.30
2022-11-24T08:22:10.289Z,9.30
2022-11-24T08:24:38.567Z,9.30
2022-11-24T08:27:05.201Z,9.31
2022-11-24T08:29:32.189Z,9.30
2022-11-24T08:31:58.863Z,9.31
2022-11-24T08:34:27.055Z,9.30
2022-11-24T08:36:53.768Z,9.31
2022-11-24T08:39:20.653Z,9.32
2022-11-24T08:41:48.727Z,9.36
2022-11-24T08:44:17.510Z,9.38
2022-11-24T08:46:44.452Z,9.40
2022-11-24T08:49:11.267Z,9.40
2022-11-24T08:51:41.111Z,9.42
2022-11-24T08:54:10.191Z,9.46
2022-11-24T08:56:36.865Z,9.47
2022-11-24T08:59:05.234Z,9.48
2022-11-24T09:01:34.694Z,9.50
2022-11-24T09:04:01.922Z,9.50
2022-11-24T09:06:30.945Z,9.52
2022-11-24T09:08:58.461Z,9.54
2022-11-24T09:11:28.382Z,9.56
2022-11-24T09:13:55.731Z,9.57
2022-11-24T09:16:28.887Z,9.56
2022-11-24T09:18:59.864Z,9.56
2022-11-24T09:21:27.413Z,9.57
2022-11-24T09:23:55.834Z,9.57
2022-11-24T09:26:27.065Z,9.58
2022-11-24T09:28:55.478Z,9.59
2022-11-24T09:31:34.658Z,9.58
2022-11-24T09:34:04.843Z,9.57
2022-11-24T09:36:32.090Z,9.57
2022-11-24T09:38:59.307Z,9.58
2022-11-24T09:41:56.126Z,9.59
2022-11-24T09:44:48.547Z,9.59
2022-11-24T09:47:27.504Z,9.61
2022-11-24T09:50:00.168Z,9.64
2022-11-24T09:52:39.129Z,9.66
2022-11-24T09:55:21.936Z,9.67
2022-11-24T09:57:56.073Z,9.68
2022-11-24T10:00:24.088Z,9.69
2022-11-24T10:02:52.310Z,9.69
2022-11-24T10:05:19.481Z,9.69
2022-11-24T10:08:00.280Z,9.71
2022-11-24T10:10:36.122Z,9.72
2022-11-24T10:13:14.675Z,9.73
2022-11-24T10:15:47.330Z,9.75
2022-11-24T10:18:43.384Z,9.78
2022-11-24T10:21:27.207Z,9.81
2022-11-24T10:24:12.523Z,9.81
2022-11-24T10:26:41.247Z,9.83
2022-11-24T10:29:20.792Z,9.86
2022-11-24T10:31:52.246Z,9.87
2022-11-24T10:34:25.669Z,9.88
2022-11-24T10:36:59.021Z,9.90
2022-11-24T10:39:32.953Z,9.91
2022-11-24T10:42:10.458Z,9.94
2022-11-24T10:44:37.161Z,9.97
2022-11-24T10:47:03.823Z,9.99
2022-11-24T10:49:33.664Z,10.02
2022-11-24T10:52:07.072Z,10.04
2022-11-24T10:54:36.062Z,10.06
2022-11-24T10:57:03.310Z,10.10
2022-11-24T10:59:38.499Z,10.14
2022-11-24T11:02:30.948Z,10.17
2022-11-24T11:04:59.303Z,10.20
2022-11-24T11:07:27.172Z,10.24
2022-11-24T11:10:18.061Z,10.27
2022-11-24T11:12:45.551Z,10.28
2022-11-24T11:15:24.193Z,10.32
2022-11-24T11:17:54.485Z,10.36
2022-11-24T11:20:28.731Z,10.39
2022-11-24T11:22:57.758Z,10.42
2022-11-24T11:25:34.190Z,10.46
2022-11-24T11:28:22.989Z,10.49
2022-11-24T11:31:18.589Z,10.53
2022-11-24T11:34:03.622Z,10.56
2022-11-24T11:36:33.619Z,10.59
2022-11-24T11:39:00.660Z,10.63
2022-11-24T11:41:32.518Z,10.66
2022-11-24T11:44:09.102Z,10.68
2022-11-24T11:46:36.287Z,10.70
2022-11-24T11:49:03.287Z,10.74
2022-11-24T11:51:47.781Z,10.77
2022-11-24T11:54:25.791Z,10.80
2022-11-24T11:57:07.778Z,10.82
2022-11-24T12:00:02.014Z,10.85
2022-11-24T12:03:02.106Z,10.88
2022-11-24T12:05:40.029Z,10.92
2022-11-24T12:08:22.616Z,10.95
2022-11-24T12:10:59.628Z,11.00
2022-11-24T12:13:43.322Z,11.03
2022-11-24T12:16:14.125Z,11.05
2022-11-24T12:19:03.040Z,11.07
2022-11-24T12:21:35.729Z,11.11
2022-11-24T12:24:15.801Z,11.14
2022-11-24T12:26:48.273Z,11.16
2022-11-24T12:29:54.543Z,11.20
2022-11-24T12:32:40.901Z,11.24
2022-11-24T12:35:20.101Z,11.27
2022-11-24T12:37:57.286Z,11.29
2022-11-24T12:40:43.633Z,11.31
2022-11-24T12:43:20.752Z,11.33
2022-11-24T12:45:54.244Z,11.35
2022-11-24T12:48:43.177Z,11.36
2022-11-24T12:51:15.970Z,11.39
2022-11-24T12:53:44.652Z,11.43
2022-11-24T12:56:16.457Z,11.47
2022-11-24T12:58:50.356Z,11.49
2022-11-24T13:01:28.629Z,11.53
2022-11-24T13:04:12.503Z,11.55
2022-11-24T13:06:50.649Z,11.57
2022-11-24T13:09:17.757Z,11.60
2022-11-24T13:11:47.112Z,11.63
2022-11-24T13:14:23.320Z,11.65
2022-11-24T13:17:27.891Z,11.67
2022-11-24T13:19:39.398Z,11.70
2022-11-24T13:22:25.548Z,11.72
2022-11-24T13:25:10.786Z,11.74
2022-11-24T13:27:52.888Z,11.74
2022-11-24T13:30:53.529Z,11.76
2022-11-24T13:33:34.365Z,11.77
2022-11-24T13:36:33.805Z,11.78
2022-11-24T13:39:02.794Z,11.81
2022-11-24T13:42:08.848Z,11.82
2022-11-24T13:44:50.812Z,11.83
2022-11-24T13:47:39.282Z,11.83
2022-11-24T13:50:15.550Z,11.84
2022-11-24T13:52:48.596Z,11.85
2022-11-24T13:55:31.703Z,11.85
2022-11-24T13:58:05.333Z,11.86
2022-11-24T14:00:36.708Z,11.87
2022-11-24T14:03:06.867Z,11.88
2022-11-24T14:05:37.782Z,11.87
2022-11-24T14:08:06.345Z,11.88
2022-11-24T14:10:36.232Z,11.87
2022-11-24T14:13:26.205Z,11.87
2022-11-24T14:16:02.591Z,11.86
2022-11-24T14:18:29.388Z,11.87
2022-11-24T14:20:56.253Z,11.87
2022-11-24T14:23:25.709Z,11.87
2022-11-24T14:25:52.889Z,11.86
2022-11-24T14:28:27.670Z,11.86
2022-11-24T14:31:08.639Z,11.85
2022-11-24T14:33:35.846Z,11.85
2022-11-24T14:36:05.459Z,11.83
2022-11-24T14:38:32.568Z,11.83
2022-11-24T14:41:15.825Z,11.82
2022-11-24T14:43:42.755Z,11.80
2022-11-24T14:46:19.324Z,11.77
2022-11-24T14:48:48.782Z,11.77
2022-11-24T14:51:20.519Z,11.76
2022-11-24T14:53:57.918Z,11.73
2022-11-24T14:56:27.863Z,11.68
2022-11-24T14:58:55.618Z,11.65
2022-11-24T15:01:32.859Z,11.62
2022-11-24T15:04:26.654Z,11.58
2022-11-24T15:07:04.741Z,11.54
2022-11-24T15:09:39.107Z,11.51
2022-11-24T15:12:26.826Z,11.45
2022-11-24T15:14:56.164Z,11.39
2022-11-24T15:17:27.088Z,11.34
2022-11-24T15:19:57.541Z,11.31
2022-11-24T15:22:36.410Z,11.25
2022-11-24T15:25:03.809Z,11.23
2022-11-24T15:27:30.490Z,11.18
2022-11-24T15:29:57.173Z,11.14
2022-11-24T15:32:27.166Z,11.10
2022-11-24T15:34:53.962Z,11.06
2022-11-24T15:37:20.576Z,11.03
2022-11-24T15:39:47.334Z,11.00
2022-11-24T15:42:13.979Z,10.96
2022-11-24T15:44:41.669Z,10.93
2022-11-24T15:47:08.989Z,10.89
2022-11-24T15:49:37.018Z,10.85
2022-11-24T15:52:03.971Z,10.80
2022-11-24T15:54:30.731Z,10.75
2022-11-24T15:56:57.375Z,10.71
2022-11-24T15:59:23.943Z,10.67
2022-11-24T16:01:50.936Z,10.62
2022-11-24T16:04:17.881Z,10.57
2022-11-24T16:06:46.049Z,10.54
2022-11-24T16:09:15.810Z,10.51
2022-11-24T16:11:42.514Z,10.48
2022-11-24T16:14:09.290Z,10.44
2022-11-24T16:16:35.963Z,10.40
2022-11-24T16:19:02.813Z,10.37
2022-11-24T16:21:29.466Z,10.34
2022-11-24T16:23:57.605Z,10.29
2022-11-24T16:26:24.242Z,10.24
2022-11-24T16:28:51.074Z,10.20
2022-11-24T16:31:19.245Z,10.17
2022-11-24T16:33:58.087Z,10.12
2022-11-24T16:36:24.835Z,10.07
2022-11-24T16:38:51.601Z,10.04
2022-11-24T16:41:21.785Z,10.02
2022-11-24T16:43:48.647Z,9.99
2022-11-24T16:46:20.313Z,9.95
2022-11-24T16:48:47.896Z,9.93
2022-11-24T16:51:15.838Z,9.89
2022-11-24T16:53:43.031Z,9.88
2022-11-24T16:56:10.154Z,9.87
2022-11-24T16:58:41.416Z,9.86
2022-11-24T17:01:10.990Z,9.83
2022-11-24T17:03:38.663Z,9.82
2022-11-24T17:06:08.007Z,9.79
2022-11-24T17:08:36.479Z,9.78
2022-11-24T17:11:06.285Z,9.74
2022-11-24T17:13:33.352Z,9.72
2022-11-24T17:16:05.874Z,9.69
2022-11-24T17:18:33.825Z,9.65
2022-11-24T17:21:07.762Z,9.63
2022-11-24T17:23:36.264Z,9.62
2022-11-24T17:26:04.287Z,9.60
2022-11-24T17:28:31.155Z,9.59
2022-11-24T17:31:07.353Z,9.57
2022-11-24T17:33:34.190Z,9.55
2022-11-24T17:36:02.067Z,9.54
2022-11-24T17:38:30.906Z,9.53
2022-11-24T17:40:57.868Z,9.52
2022-11-24T17:43:25.091Z,9.52
2022-11-24T17:45:56.048Z,9.51
2022-11-24T17:48:28.445Z,9.51
2022-11-24T17:51:02.680Z,9.50
2022-11-24T17:53:30.405Z,9.49
2022-11-24T17:55:59.428Z,9.48
2022-11-24T17:58:27.191Z,9.49
2022-11-24T18:00:54.415Z,9.50
2022-11-24T18:03:21.456Z,9.50
2022-11-24T18:05:51.283Z,9.51
2022-11-24T18:08:18.152Z,9.51
2022-11-24T18:10:44.846Z,9.52
2022-11-24T18:13:22.405Z,9.54
2022-11-24T18:16:00.014Z,9.53
2022-11-24T18:18:26.799Z,9.53
2022-11-24T18:20:56.311Z,9.52
2022-11-24T18:23:23.347Z,9.55
2022-11-24T18:25:55.082Z,9.54
2022-11-24T18:28:21.517Z,9.52
2022-11-24T18:30:48.536Z,9.54
2022-11-24T18:33:15.293Z,9.52
2022-11-24T18:35:42.124Z,9.52
2022-11-24T18:38:10.696Z,9.52
2022-11-24T18:40:39.131Z,9.53
2022-11-24T18:43:05.976Z,9.54
2022-11-24T18:45:38.023Z,9.54
2022-11-24T18:48:05.255Z,9.54
2022-11-24T18:50:33.203Z,9.53
2022-11-24T18:53:03.070Z,9.54
2022-11-24T18:55:31.185Z,9.55
2022-11-24T18:57:58.669Z,9.55
2022-11-24T19:00:25.426Z,9.54
2022-11-24T19:02:52.244Z,9.55
2022-11-24T19:05:20.181Z,9.55
2022-11-24T19:07:46.886Z,9.54
2022-11-24T19:10:15.975Z,9.53
2022-11-24T19:12:45.170Z,9.51
2022-11-24T19:15:11.818Z,9.50
2022-11-24T19:17:38.612Z,9.50
2022-11-24T19:20:13.135Z,9.48
2022-11-24T19:22:39.792Z,9.47
2022-11-24T19:25:12.634Z,9.46
2022-11-24T19:27:39.415Z,9.45
2022-11-24T19:30:09.037Z,9.43
2022-11-24T19:32:35.930Z,9.42
2022-11-24T19:35:03.148Z,9.42
2022-11-24T19:37:29.847Z,9.42
2022-11-24T19:39:57.918Z,9.40
2022-11-24T19:42:24.616Z,9.39
2022-11-24T19:44:56.235Z,9.39
2022-11-24T19:47:24.753Z,9.38
2022-11-24T19:49:51.818Z,9.35
2022-11-24T19:52:18.542Z,9.33
2022-11-24T19:54:46.481Z,9.31
2022-11-24T19:57:15.133Z,9.31
2022-11-24T19:59:42.426Z,9.30
2022-11-24T20:02:09.215Z,9.28
2022-11-24T20:04:40.103Z,9.27
2022-11-24T20:07:06.868Z,9.26
2022-11-24T20:09:33.670Z,9.23
2022-11-24T20:12:00.553Z,9.22
2022-11-24T20:14:28.098Z,9.22
2022-11-24T20:16:54.736Z,9.20
2022-11-24T20:19:21.618Z,9.21
2022-11-24T20:21:50.299Z,9.19
2022-11-24T20:24:19.104Z,9.18
2022-11-24T20:26:48.678Z,9.17
2022-11-24T20:29:18.706Z,9.17
2022-11-24T20:31:48.037Z,9.15
2022-11-24T20:34:16.192Z,9.12
2022-11-24T20:36:45.291Z,9.11
2022-11-24T20:39:17.411Z,9.08
2022-11-24T20:41:44.572Z,9.07
2022-11-24T20:44:15.758Z,9.06
2022-11-24T20:46:44.782Z,9.03
2022-11-24T20:49:13.874Z,9.03
2022-11-24T20:51:44.254Z,9.01
2022-11-24T20:54:13.194Z,8.99
2022-11-24T20:56:41.498Z,8.98
2022-11-24T20:59:10.534Z,8.97
2022-11-24T21:01:40.482Z,8.97
2022-11-24T21:04:10.039Z,8.97
2022-11-24T21:06:38.047Z,8.98
2022-11-24T21:09:07.034Z,8.99
2022-11-24T21:11:36.738Z,9.01
2022-11-24T21:14:08.216Z,9.02
2022-11-24T21:16:36.531Z,9.02
2022-11-24T21:19:06.030Z,9.02
2022-11-24T21:21:35.211Z,9.02
2022-11-24T21:24:02.302Z,9.03
2022-11-24T21:26:30.874Z,9.03
2022-11-24T21:28:59.630Z,9.05
2022-11-24T21:31:29.144Z,9.06
2022-11-24T21:33:56.946Z,9.08
2022-11-24T21:36:25.774Z,9.09
2022-11-24T21:38:56.700Z,9.10
2022-11-24T21:41:26.231Z,9.10
2022-11-24T21:43:55.494Z,9.12
2022-11-24T21:46:25.075Z,9.13
2022-11-24T21:48:52.095Z,9.13
2022-11-24T21:51:20.752Z,9.11
2022-11-24T21:53:52.061Z,9.14
2022-11-24T21:56:20.623Z,9.13
2022-11-24T21:58:48.954Z,9.14
2022-11-24T22:01:17.847Z,9.14
2022-11-24T22:03:46.644Z,9.14
2022-11-24T22:06:15.277Z,9.13
2022-11-24T22:08:41.923Z,9.13
2022-11-24T22:11:11.466Z,9.15
2022-11-24T22:13:38.317Z,9.16
2022-11-24T22:16:07.417Z,9.16
2022-11-24T22:18:35.421Z,9.16
2022-11-24T22:21:05.508Z,9.17
2022-11-24T22:23:34.795Z,9.19
2022-11-24T22:26:06.212Z,9.21
2022-11-24T22:28:33.546Z,9.20
2022-11-24T22:31:07.205Z,9.19
2022-11-24T22:33:34.142Z,9.20
2022-11-24T22:36:01.919Z,9.20
2022-11-24T22:38:31.077Z,9.20
2022-11-24T22:41:01.477Z,9.19
2022-11-24T22:43:29.925Z,9.18
2022-11-24T22:45:57.772Z,9.18
2022-11-24T22:48:24.503Z,9.17
2022-11-24T22:50:51.442Z,9.19
2022-11-24T22:53:18.073Z,9.18
2022-11-24T22:55:46.363Z,9.19
2022-11-24T22:58:13.345Z,9.18
2022-11-24T23:00:39.984Z,9.17
2022-11-24T23:03:06.978Z,9.19
2022-11-24T23:05:34.199Z,9.19
2022-11-24T23:08:01.177Z,9.21
2022-11-24T23:10:27.829Z,9.21
2022-11-24T23:12:56.223Z,9.22
2022-11-24T23:15:22.811Z,9.24
2022-11-24T23:17:49.454Z,9.24
2022-11-24T23:20:17.071Z,9.25
2022-11-24T23:22:43.743Z,9.25
2022-11-24T23:25:10.351Z,9.25
2022-11-24T23:27:38.228Z,9.26
2022-11-24T23:30:08.841Z,9.27
2022-11-24T23:32:35.401Z,9.28
2022-11-24T23:35:02.706Z,9.29
2022-11-24T23:37:52.069Z,9.31
2022-11-24T23:40:16.239Z,9.30
2022-11-24T23:42:46.202Z,9.31
2022-11-24T23:45:14.299Z,9.32
2022-11-24T23:47:41.058Z,9.33
2022-11-24T23:50:08.772Z,9.35
2022-11-24T23:52:35.414Z,9.35
2022-11-24T23:55:02.199Z,9.36
2022-11-24T23:57:28.800Z,9.37
2022-11-24T23:59:55.355Z,9.37
